M/y Big Sky — ZGAH4 — position and weather

sailwx.info

Track history (hours):
 
Tides and Currents Weather Stations Pressure Air Temp Water Temp Dewpoint Dewpoint Depression Visibility Wind Speed Wind Dir Waves Ship Positions

M/y Big Sky

Last reported at 2017-Aug-31 07:18 UTC. Time now 2017-Sep-24 17:54 UTC.
Position N 44°25' E 008°47'.
Warning: this ship's position is 24 days out of date.

Length 48 m; draft 2.5 m.

Type: Pleasure craft. MMSI: 319016800.

Date/timePositionNaut miles runAvg speedWind from/ knotsBaromVisibWave heightAir tempDewpointWater temp
2017-Aug-31 07:18N 44°25' E 008°47'0 0.0
2017-Aug-31 07:00N 44°25' E 008°47'1 1.8
2017-Aug-31 06:28N 44°24' E 008°46'0 0.0
2017-Aug-31 05:55N 44°24' E 008°46'0 0.0
2017-Aug-31 05:28N 44°24' E 008°46'0 0.0
2017-Aug-31 04:55N 44°24' E 008°46'0 1.1
2017-Aug-31 04:30N 44°24' E 008°46'4 8.0
2017-Aug-31 04:00N 44°20' E 008°45'5 9.4
2017-Aug-31 03:29N 44°16' E 008°41'4 9.4
2017-Aug-31 03:00N 44°13' E 008°36'5 9.2
2017-Aug-31 02:30N 44°10' E 008°32'5 8.9
2017-Aug-31 02:00N 44°06' E 008°28'5 8.9
2017-Aug-31 01:29N 44°03' E 008°24'5 8.7
2017-Aug-31 00:58N 43°60' E 008°19'8 8.6
2017-Aug-31 00:00N 43°54' E 008°11'5 8.8
2017-Aug-30 23:24N 43°51' E 008°05'4 8.9
2017-Aug-30 23:00N 43°49' E 008°01'5 8.6
2017-Aug-30 22:27N 43°47' E 007°55'4 9.5
2017-Aug-30 22:00N 43°48' E 007°49'2 2.9
2017-Aug-30 21:28N 43°49' E 007°47'  
2017-Aug-24 22:52N 43°40' E 008°10'3 9.5
2017-Aug-24 22:30N 43°38' E 008°14'11 9.6
2017-Aug-24 21:19N 43°33' E 008°28'4 9.5
2017-Aug-24 20:56N 43°31' E 008°32'4 9.6
2017-Aug-24 20:30N 43°29' E 008°37'7 9.8
2017-Aug-24 19:50N 43°26' E 008°45'9 9.6
2017-Aug-24 18:52N 43°21' E 008°56'3 9.5
2017-Aug-24 18:30N 43°20' E 009°01'5 9.7
2017-Aug-24 17:58N 43°17' E 009°07'5 9.7
2017-Aug-24 17:30N 43°15' E 009°12'6 9.7
2017-Aug-24 16:50N 43°12' E 009°20'14 9.5
2017-Aug-24 15:19N 43°04' E 009°37'5 9.8
2017-Aug-24 14:46N 42°59' E 009°41'5 9.7
2017-Aug-24 14:16N 42°55' E 009°44'3 9.4
2017-Aug-24 13:59N 42°53' E 009°47'5 9.4
2017-Aug-24 13:26N 42°50' E 009°52'12 9.4
2017-Aug-24 12:12N 42°43' E 010°04'2 9.8
2017-Aug-24 12:00N 42°42' E 010°07'20 9.5
2017-Aug-24 09:53N 42°29' E 010°27'15 9.4
2017-Aug-24 08:18N 42°19' E 010°42'310.0
2017-Aug-24 08:00N 42°17' E 010°45'17310.3
2017-Aug-23 15:07N 40°39' E 013°56'510.9
2017-Aug-23 14:37N 40°37' E 014°03'111.2
2017-Aug-23 14:30N 40°37' E 014°04'1610.5
2017-Aug-23 12:59N 40°34' E 014°25'1 0.0
2017-Aug-22 07:51N 40°35' E 014°26'11 0.7
2017-Aug-21 16:12N 40°35' E 014°12'314.4
2017-Aug-21 16:00N 40°37' E 014°09'  
Track history (hours):
 
Tides and Currents Weather Stations Pressure Air Temp Water Temp Dewpoint Dewpoint Depression Visibility Wind Speed Wind Dir Waves Ship Positions

M/y Big Sky

Last reported at 2017-Aug-31 07:18 UTC. Time now 2017-Sep-24 17:54 UTC.
Position N 44°25' E 008°47'.
Warning: this ship's position is 24 days out of date.

Length 48 m; draft 2.5 m.

Type: Pleasure craft. MMSI: 319016800.

Date/timePositionNaut miles runAvg speedWind from/ knotsBaromVisibWave heightAir tempDewpointWater temp
2017-Aug-31 07:18N 44°25' E 008°47'0 0.0
2017-Aug-31 07:00N 44°25' E 008°47'1 1.8
2017-Aug-31 06:28N 44°24' E 008°46'0 0.0
2017-Aug-31 05:55N 44°24' E 008°46'0 0.0
2017-Aug-31 05:28N 44°24' E 008°46'0 0.0
2017-Aug-31 04:55N 44°24' E 008°46'0 1.1
2017-Aug-31 04:30N 44°24' E 008°46'4 8.0
2017-Aug-31 04:00N 44°20' E 008°45'5 9.4
2017-Aug-31 03:29N 44°16' E 008°41'4 9.4
2017-Aug-31 03:00N 44°13' E 008°36'5 9.2
2017-Aug-31 02:30N 44°10' E 008°32'5 8.9
2017-Aug-31 02:00N 44°06' E 008°28'5 8.9
2017-Aug-31 01:29N 44°03' E 008°24'5 8.7
2017-Aug-31 00:58N 43°60' E 008°19'8 8.6
2017-Aug-31 00:00N 43°54' E 008°11'5 8.8
2017-Aug-30 23:24N 43°51' E 008°05'4 8.9
2017-Aug-30 23:00N 43°49' E 008°01'5 8.6
2017-Aug-30 22:27N 43°47' E 007°55'4 9.5
2017-Aug-30 22:00N 43°48' E 007°49'2 2.9
2017-Aug-30 21:28N 43°49' E 007°47'  
2017-Aug-24 22:52N 43°40' E 008°10'3 9.5
2017-Aug-24 22:30N 43°38' E 008°14'11 9.6
2017-Aug-24 21:19N 43°33' E 008°28'4 9.5
2017-Aug-24 20:56N 43°31' E 008°32'4 9.6
2017-Aug-24 20:30N 43°29' E 008°37'7 9.8
2017-Aug-24 19:50N 43°26' E 008°45'9 9.6
2017-Aug-24 18:52N 43°21' E 008°56'3 9.5
2017-Aug-24 18:30N 43°20' E 009°01'5 9.7
2017-Aug-24 17:58N 43°17' E 009°07'5 9.7
2017-Aug-24 17:30N 43°15' E 009°12'6 9.7
2017-Aug-24 16:50N 43°12' E 009°20'14 9.5
2017-Aug-24 15:19N 43°04' E 009°37'5 9.8
2017-Aug-24 14:46N 42°59' E 009°41'5 9.7
2017-Aug-24 14:16N 42°55' E 009°44'3 9.4
2017-Aug-24 13:59N 42°53' E 009°47'5 9.4
2017-Aug-24 13:26N 42°50' E 009°52'12 9.4
2017-Aug-24 12:12N 42°43' E 010°04'2 9.8
2017-Aug-24 12:00N 42°42' E 010°07'20 9.5
2017-Aug-24 09:53N 42°29' E 010°27'15 9.4
2017-Aug-24 08:18N 42°19' E 010°42'310.0
2017-Aug-24 08:00N 42°17' E 010°45'17310.3
2017-Aug-23 15:07N 40°39' E 013°56'510.9
2017-Aug-23 14:37N 40°37' E 014°03'111.2
2017-Aug-23 14:30N 40°37' E 014°04'1610.5
2017-Aug-23 12:59N 40°34' E 014°25'1 0.0
2017-Aug-22 07:51N 40°35' E 014°26'11 0.7
2017-Aug-21 16:12N 40°35' E 014°12'314.4
2017-Aug-21 16:00N 40°37' E 014°09'  

Dump ship's entire track history